createdAt,value
2023-08-29T00:02:33.091Z,59.05
2023-08-29T00:07:37.522Z,58.49
2023-08-29T00:12:42.370Z,58.36
2023-08-29T00:17:45.651Z,58.89
2023-08-29T00:22:50.029Z,59.00
2023-08-29T00:27:53.095Z,58.75
2023-08-29T00:32:56.044Z,59.32
2023-08-29T00:38:01.393Z,59.53
2023-08-29T00:43:04.927Z,59.71
2023-08-29T00:48:09.559Z,59.66
2023-08-29T00:53:16.783Z,59.90
2023-08-29T00:58:20.296Z,59.82
2023-08-29T01:03:23.973Z,59.77
2023-08-29T01:08:28.372Z,60.41
2023-08-29T01:13:37.567Z,60.30
2023-08-29T01:18:40.786Z,60.66
2023-08-29T01:23:52.792Z,60.62
2023-08-29T01:28:58.931Z,60.85
2023-08-29T01:34:03.355Z,60.81
2023-08-29T01:39:06.413Z,60.67
2023-08-29T01:44:11.008Z,60.53
2023-08-29T01:49:14.244Z,60.37
2023-08-29T01:54:17.309Z,60.69
2023-08-29T01:59:21.769Z,61.06
2023-08-29T02:04:26.096Z,61.14
2023-08-29T02:09:29.106Z,61.39
2023-08-29T02:14:34.685Z,60.99
2023-08-29T02:19:38.858Z,61.16
2023-08-29T02:24:41.825Z,61.55
2023-08-29T02:29:46.252Z,61.85
2023-08-29T02:34:49.373Z,61.88
2023-08-29T02:39:52.363Z,61.34
2023-08-29T02:44:58.464Z,61.67
2023-08-29T02:50:01.492Z,61.68
2023-08-29T02:55:07.248Z,62.08
2023-08-29T03:00:12.825Z,61.78
2023-08-29T03:05:16.637Z,61.54
2023-08-29T03:10:19.667Z,61.93
2023-08-29T03:15:24.217Z,62.18
2023-08-29T03:20:27.408Z,61.90
2023-08-29T03:25:30.385Z,62.48
2023-08-29T03:30:34.903Z,62.15
2023-08-29T03:35:37.854Z,62.27
2023-08-29T03:40:42.279Z,62.21
2023-08-29T03:45:46.567Z,62.07
2023-08-29T03:50:51.320Z,62.41
2023-08-29T03:55:54.311Z,62.22
2023-08-29T04:00:59.449Z,62.40
2023-08-29T04:06:02.506Z,62.17
2023-08-29T04:11:05.928Z,62.18
2023-08-29T04:16:10.570Z,62.14
2023-08-29T04:21:13.610Z,62.30
2023-08-29T04:26:16.614Z,62.33
2023-08-29T04:31:22.276Z,63.12
2023-08-29T04:36:26.551Z,62.89
2023-08-29T04:41:29.536Z,63.25
2023-08-29T04:46:34.295Z,63.33
2023-08-29T04:51:37.380Z,62.99
2023-08-29T04:56:40.455Z,63.30
2023-08-29T05:01:49.707Z,63.46
2023-08-29T05:06:54.002Z,63.50
2023-08-29T05:11:57.123Z,63.65
2023-08-29T05:17:03.255Z,63.66
2023-08-29T05:22:06.888Z,63.38
2023-08-29T05:27:11.585Z,64.95
2023-08-29T05:32:20.179Z,65.66
2023-08-29T05:37:28.290Z,65.11
2023-08-29T05:42:37.169Z,64.95
2023-08-29T05:47:46.480Z,64.67
2023-08-29T05:52:55.232Z,64.87
2023-08-29T05:58:03.857Z,64.50
2023-08-29T06:03:17.525Z,64.69
2023-08-29T06:08:24.327Z,64.92
2023-08-29T06:13:32.096Z,64.38
2023-08-29T06:18:42.729Z,64.51
2023-08-29T06:23:51.372Z,64.78
2023-08-29T06:29:06.653Z,64.61
2023-08-29T06:34:22.634Z,65.03
2023-08-29T06:39:34.849Z,65.21
2023-08-29T06:44:50.959Z,66.58
2023-08-29T06:50:08.435Z,66.80
2023-08-29T06:55:25.961Z,67.62
2023-08-29T07:00:44.533Z,67.86
2023-08-29T07:06:01.059Z,67.97
2023-08-29T07:11:16.356Z,68.17
2023-08-29T07:16:30.534Z,68.60
2023-08-29T07:21:45.526Z,69.10
2023-08-29T07:27:02.034Z,68.48
2023-08-29T07:32:20.432Z,69.43
2023-08-29T07:37:38.012Z,68.94
2023-08-29T07:42:53.959Z,69.34
2023-08-29T07:48:09.773Z,69.29
2023-08-29T07:53:29.670Z,69.96
2023-08-29T07:58:41.616Z,70.40
2023-08-29T08:03:58.602Z,70.42
2023-08-29T08:09:18.688Z,70.34
2023-08-29T08:14:35.705Z,70.61
2023-08-29T08:19:51.251Z,70.93
2023-08-29T08:25:05.538Z,71.52
2023-08-29T08:30:22.006Z,71.39
2023-08-29T08:35:44.443Z,71.28
2023-08-29T08:41:08.789Z,71.87
2023-08-29T08:46:24.828Z,70.97
2023-08-29T08:51:36.893Z,71.87
2023-08-29T08:56:56.838Z,71.77
2023-08-29T09:02:15.816Z,71.64
2023-08-29T09:07:33.845Z,71.45
2023-08-29T09:13:04.205Z,71.86
2023-08-29T09:18:29.556Z,72.43
2023-08-29T09:23:48.892Z,73.00
2023-08-29T09:29:07.067Z,72.39
2023-08-29T09:34:33.224Z,72.14
2023-08-29T09:39:46.506Z,71.98
2023-08-29T09:45:04.969Z,71.43
2023-08-29T09:50:19.313Z,71.88
2023-08-29T09:55:32.375Z,72.17
2023-08-29T10:00:42.574Z,72.39
2023-08-29T10:05:52.118Z,72.20
2023-08-29T10:11:00.844Z,73.00
2023-08-29T10:16:12.308Z,73.78
2023-08-29T10:21:23.053Z,73.43
2023-08-29T10:26:29.063Z,73.66
2023-08-29T10:31:35.734Z,75.07
2023-08-29T10:36:41.319Z,74.17
2023-08-29T10:41:49.412Z,73.79
2023-08-29T10:46:55.870Z,73.71
2023-08-29T10:52:10.049Z,74.24
2023-08-29T10:57:29.870Z,74.79
2023-08-29T11:02:36.339Z,74.01
2023-08-29T11:07:40.577Z,75.10
2023-08-29T11:13:10.615Z,75.09
2023-08-29T11:18:22.418Z,74.37
2023-08-29T11:23:26.154Z,74.11
2023-08-29T11:28:29.293Z,73.91
2023-08-29T11:33:35.154Z,74.23
2023-08-29T11:38:38.785Z,74.02
2023-08-29T11:43:56.553Z,74.35
2023-08-29T11:49:15.114Z,74.35
2023-08-29T11:54:41.706Z,73.90
2023-08-29T11:59:46.416Z,73.89
2023-08-29T12:04:56.775Z,73.83
2023-08-29T12:10:16.955Z,73.62
2023-08-29T12:15:43.941Z,72.38
2023-08-29T12:20:50.071Z,72.40
2023-08-29T12:25:53.293Z,72.72
2023-08-29T12:30:57.814Z,72.50
2023-08-29T12:36:04.270Z,72.34
2023-08-29T12:41:09.245Z,72.99
2023-08-29T12:46:14.409Z,73.69
2023-08-29T12:51:18.942Z,73.50
2023-08-29T12:56:26.844Z,73.58
2023-08-29T13:01:33.533Z,73.32
2023-08-29T13:06:39.410Z,73.81
2023-08-29T13:11:44.931Z,73.96
2023-08-29T13:16:49.477Z,74.28
2023-08-29T13:21:54.398Z,74.09
2023-08-29T13:26:57.971Z,73.32
2023-08-29T13:32:01.512Z,72.78
2023-08-29T13:37:06.989Z,72.77
2023-08-29T13:42:15.662Z,72.44
2023-08-29T13:47:26.575Z,72.41
2023-08-29T13:52:40.430Z,72.72
2023-08-29T13:57:47.340Z,71.96
2023-08-29T14:02:51.618Z,71.33
2023-08-29T14:07:56.101Z,70.54
2023-08-29T14:13:02.004Z,70.21
2023-08-29T14:18:09.374Z,69.19
2023-08-29T14:23:14.214Z,69.66
2023-08-29T14:28:17.480Z,69.58
2023-08-29T14:33:20.932Z,69.52
2023-08-29T14:38:25.376Z,69.19
2023-08-29T14:43:28.510Z,69.23
2023-08-29T14:48:31.624Z,69.16
2023-08-29T14:53:36.694Z,68.28
2023-08-29T14:58:39.833Z,68.35
2023-08-29T15:03:43.157Z,68.43
2023-08-29T15:08:48.518Z,67.77
2023-08-29T15:13:51.600Z,67.43
2023-08-29T15:18:55.244Z,67.64
2023-08-29T15:23:59.782Z,66.79
2023-08-29T15:29:04.827Z,67.89
2023-08-29T15:34:08.349Z,67.16
2023-08-29T15:39:13.186Z,67.47
2023-08-29T15:44:16.273Z,67.59
2023-08-29T15:49:19.512Z,67.15
2023-08-29T15:54:24.310Z,67.52
2023-08-29T15:59:28.912Z,67.94
2023-08-29T16:04:32.536Z,67.43
2023-08-29T16:09:37.516Z,68.74
2023-08-29T16:14:40.630Z,68.83
2023-08-29T16:19:45.486Z,69.48
2023-08-29T16:24:50.103Z,68.11
2023-08-29T16:29:55.659Z,68.19
2023-08-29T16:34:59.495Z,68.23
2023-08-29T16:40:07.036Z,67.87
2023-08-29T16:45:11.846Z,68.65
2023-08-29T16:50:15.937Z,67.24
2023-08-29T16:55:21.616Z,68.13
2023-08-29T17:00:24.994Z,67.90
2023-08-29T17:05:30.213Z,67.57
2023-08-29T17:10:34.983Z,67.09
2023-08-29T17:15:38.331Z,66.98
2023-08-29T17:20:41.590Z,67.05
2023-08-29T17:25:45.915Z,66.87
2023-08-29T17:30:49.164Z,67.02
2023-08-29T17:35:52.081Z,66.74
2023-08-29T17:40:59.503Z,66.24
2023-08-29T17:46:04.351Z,66.45
2023-08-29T17:51:07.569Z,66.30
2023-08-29T17:56:12.082Z,65.55
2023-08-29T18:01:15.657Z,65.38
2023-08-29T18:06:25.190Z,65.67
2023-08-29T18:11:30.141Z,66.12
2023-08-29T18:16:33.490Z,64.97
2023-08-29T18:21:36.528Z,64.97
2023-08-29T18:26:41.356Z,65.20
2023-08-29T18:31:44.540Z,65.37
2023-08-29T18:36:47.473Z,65.74
2023-08-29T18:41:51.776Z,65.67
2023-08-29T18:46:55.029Z,66.08
2023-08-29T18:51:58.419Z,64.36
2023-08-29T18:57:03.573Z,64.34
2023-08-29T19:02:07.667Z,63.92
2023-08-29T19:07:11.644Z,64.41
2023-08-29T19:12:16.564Z,64.63
2023-08-29T19:17:19.908Z,63.73
2023-08-29T19:22:22.947Z,63.89
2023-08-29T19:27:29.092Z,63.20
2023-08-29T19:32:32.536Z,63.59
2023-08-29T19:37:35.867Z,63.86
2023-08-29T19:42:40.329Z,62.11
2023-08-29T19:47:43.840Z,62.75
2023-08-29T19:52:47.536Z,62.10
2023-08-29T19:57:51.990Z,63.04
2023-08-29T20:02:55.148Z,62.91
2023-08-29T20:08:04.400Z,61.56
2023-08-29T20:13:10.455Z,61.95
2023-08-29T20:18:13.768Z,61.32
2023-08-29T20:23:19.705Z,61.26
2023-08-29T20:28:24.495Z,60.81
2023-08-29T20:33:28.074Z,61.07
2023-08-29T20:38:30.935Z,61.01
2023-08-29T20:43:35.369Z,61.08
2023-08-29T20:48:38.414Z,61.27
2023-08-29T20:53:42.057Z,61.03
2023-08-29T20:58:46.694Z,61.10
2023-08-29T21:03:49.843Z,60.30
2023-08-29T21:08:53.191Z,60.50
2023-08-29T21:13:59.308Z,61.25
2023-08-29T21:19:02.312Z,60.65
2023-08-29T21:24:05.512Z,60.64
2023-08-29T21:29:10.375Z,61.03
2023-08-29T21:34:13.463Z,60.14
2023-08-29T21:39:16.861Z,60.45
2023-08-29T21:44:21.480Z,60.10
2023-08-29T21:49:24.656Z,60.04
2023-08-29T21:54:27.738Z,60.15
2023-08-29T21:59:32.118Z,59.99
2023-08-29T22:04:35.253Z,60.05
2023-08-29T22:09:38.681Z,59.61
2023-08-29T22:14:43.020Z,60.28
2023-08-29T22:19:46.168Z,59.87
2023-08-29T22:24:49.209Z,59.85
2023-08-29T22:29:53.615Z,59.57
2023-08-29T22:34:56.672Z,60.48
2023-08-29T22:40:00.016Z,60.34
2023-08-29T22:45:05.317Z,60.30
2023-08-29T22:50:11.200Z,60.86
2023-08-29T22:55:14.994Z,60.49
2023-08-29T23:00:21.664Z,60.28
2023-08-29T23:05:24.690Z,61.33
2023-08-29T23:10:28.067Z,61.37
2023-08-29T23:15:32.398Z,61.29
2023-08-29T23:20:35.298Z,61.54
2023-08-29T23:25:38.361Z,61.84
2023-08-29T23:30:42.632Z,62.65
2023-08-29T23:35:45.444Z,62.80
2023-08-29T23:40:49.808Z,62.75
2023-08-29T23:45:54.008Z,63.06
2023-08-29T23:50:56.939Z,62.65
2023-08-29T23:56:00.280Z,62.90
